Time;durP1;ratioP1;P1;durP2;ratioP2;P2;SDS_P1;SDS_P2;PMS_P1;PMS_P2;Temp;Humidity;BMP_temperature;BMP_pressure;BME280_temperature;BME280_humidity;BME280_pressure;Samples;Min_cycle;Max_cycle;Signal;HPM_P1;HPM_P2
2022/01/19 00:00:53;;;;;;;;;;;;;;;;;;5043102;28;19974;-56
2022/01/19 00:03:18;;;;;;;;;;;;;;;;;;5041225;28;19931;-55
2022/01/19 00:05:44;;;;;;;;;;;;;;;;;;5043800;28;20776;-55
2022/01/19 00:08:11;;;;;;;;;;;;;;;;;;5043321;28;19925;-56
2022/01/19 00:10:54;;;;;;;;;;;;;;;;;;5064351;28;19942;-53
2022/01/19 00:13:20;;;;;;;;;;;;;;;;;;5063181;28;19920;-56
2022/01/19 00:15:45;;;;;;;;;;;;;;;;;;5063361;28;19925;-54
2022/01/19 00:18:11;;;;;;;;;;;;;;;;;;5063460;28;19924;-54
2022/01/19 00:20:36;;;;;;;;;;;;;;;;;;5063417;28;19924;-55
2022/01/19 00:23:02;;;;;;;;;;;;;;;;;;5056563;28;19935;-57
2022/01/19 00:25:27;;;;;;;;;;;;;;;;;;5055651;28;19924;-54
2022/01/19 00:27:53;;;;;;;;;;;;;;;;;;5067988;28;19916;-55
2022/01/19 00:30:18;;;;;;;;;;;;;;;;;;5073175;28;20043;-56
2022/01/19 00:32:44;;;;;;;;;;;;;;;;;;5067379;28;19932;-53
2022/01/19 00:35:09;;;;;;;;;;;;;;;;;;5061024;28;19917;-55
2022/01/19 00:37:34;;;;;;;;;;;;;;;;;;5059519;28;19932;-56
2022/01/19 00:40:00;;;;;;;;;;;;;;;;;;5060366;28;19917;-53
2022/01/19 00:42:25;;;;;;;;;;;;;;;;;;5059053;28;19924;-56
2022/01/19 00:44:51;;;;;;;;;;;;;;;;;;5058779;28;19925;-55
2022/01/19 00:47:16;;;;;;;;;;;;;;;;;;5056608;28;19923;-57
2022/01/19 00:49:42;;;;;;;;;;;;;;;;;;5020246;28;19968;-55
2022/01/19 00:52:08;;;;;;;;;;;;;;;;;;5022269;28;19932;-56
2022/01/19 00:54:33;;;;;;;;;;;;;;;;;;5018635;28;19921;-56
2022/01/19 00:56:59;;;;;;;;;;;;;;;;;;5019840;28;19948;-55
2022/01/19 00:59:24;;;;;;;;;;;;;;;;;;5019376;28;20027;-56
2022/01/19 01:01:50;;;;;;;;;;;;;;;;;;5019447;28;19921;-54
2022/01/19 01:04:15;;;;;;;;;;;;;;;;;;5018076;28;20788;-56
2022/01/19 01:06:40;;;;;;;;;;;;;;;;;;5020633;28;20328;-55
2022/01/19 01:09:06;;;;;;;;;;;;;;;;;;5021029;28;19925;-56
2022/01/19 01:11:36;;;;;;;;;;;;;;;;;;5020583;28;20003;-57
2022/01/19 01:19:01;;;;;;;;;;;;;;;;;;5021599;28;19926;-54
2022/01/19 01:21:26;;;;;;;;;;;;;;;;;;5020443;28;19921;-57
2022/01/19 01:23:52;;;;;;;;;;;;;;;;;;5028743;28;19937;-54
2022/01/19 01:26:17;;;;;;;;;;;;;;;;;;5020637;28;19959;-56
2022/01/19 01:28:43;;;;;;;;;;;;;;;;;;5015160;28;20060;-56
2022/01/19 01:31:09;;;;;;;;;;;;;;;;;;5021851;28;20048;-54
2022/01/19 01:33:34;;;;;;;;;;;;;;;;;;5021552;28;19979;-57
2022/01/19 01:36:00;;;;;;;;;;;;;;;;;;5021048;28;20399;-54
2022/01/19 01:38:25;;;;;;;;;;;;;;;;;;5016678;28;19925;-55
2022/01/19 01:40:51;;;;;;;;;;;;;;;;;;5020738;28;19925;-55
2022/01/19 01:43:16;;;;;;;;;;;;;;;;;;5021354;28;19925;-57
2022/01/19 01:45:43;;;;;;;;;;;;;;;;;;5019700;28;19921;-54
2022/01/19 01:48:15;;;;;;;;;;;;;;;;;;5018842;28;19979;-54
2022/01/19 01:53:27;;;;;;;;;;;;;;;;;;5019361;28;19971;-57
2022/01/19 01:55:53;;;;;;;;;;;;;;;;;;5024696;28;19917;-55
2022/01/19 01:58:18;;;;;;;;;;;;;;;;;;5029408;28;19921;-55
2022/01/19 02:00:44;;;;;;;;;;;;;;;;;;5028344;28;19921;-57
2022/01/19 02:03:09;;;;;;;;;;;;;;;;;;5026578;28;19925;-52
2022/01/19 02:05:39;;;;;;;;;;;;;;;;;;5020844;28;20023;-55
2022/01/19 02:10:45;;;;;;;;;;;;;;;;;;5020324;28;19925;-54
2022/01/19 02:16:19;;;;;;;;;;;;;;;;;;5019990;28;20049;-52
2022/01/19 02:21:58;;;;;;;;;;;;;;;;;;5019433;28;19964;-54
2022/01/19 02:24:28;;;;;;;;;;;;;;;;;;5017558;28;20575;-52
2022/01/19 02:40:13;;;;;;;;;;;;;;;;;;5019146;28;20003;-56
2022/01/19 02:42:42;;;;;;;;;;;;;;;;;;5017631;28;19947;-54
2022/01/19 02:50:17;;;;;;;;;;;;;;;;;;5017482;28;20201;-56
2022/01/19 02:52:42;;;;;;;;;;;;;;;;;;5018924;28;20560;-56
2022/01/19 02:55:08;;;;;;;;;;;;;;;;;;5018552;28;20321;-56
2022/01/19 02:57:35;;;;;;;;;;;;;;;;;;5017571;28;20439;-55
2022/01/19 03:06:31;;;;;;;;;;;;;;;;;;5019011;28;19921;-54
2022/01/19 03:10:58;;;;;;;;;;;;;;;;;;5017866;28;19936;-58
2022/01/19 03:13:23;;;;;;;;;;;;;;;;;;5024307;28;19921;-54
2022/01/19 03:15:49;;;;;;;;;;;;;;;;;;5018529;28;19925;-56
2022/01/19 03:18:14;;;;;;;;;;;;;;;;;;5018237;28;20305;-52
2022/01/19 03:20:40;;;;;;;;;;;;;;;;;;5024760;28;19929;-55
2022/01/19 03:23:16;;;;;;;;;;;;;;;;;;5017199;28;19932;-55
2022/01/19 03:25:42;;;;;;;;;;;;;;;;;;5017444;28;19921;-56
2022/01/19 03:28:07;;;;;;;;;;;;;;;;;;5018512;28;19925;-55
2022/01/19 03:30:35;;;;;;;;;;;;;;;;;;5017928;28;21379;-54
2022/01/19 03:33:01;;;;;;;;;;;;;;;;;;5018554;28;20403;-54
2022/01/19 03:35:27;;;;;;;;;;;;;;;;;;5025762;28;20263;-52
2022/01/19 03:37:52;;;;;;;;;;;;;;;;;;5017804;28;19933;-54
2022/01/19 03:40:18;;;;;;;;;;;;;;;;;;5017617;28;20435;-55
2022/01/19 03:42:43;;;;;;;;;;;;;;;;;;5017799;28;20269;-57
2022/01/19 03:45:09;;;;;;;;;;;;;;;;;;5018021;28;19925;-53
2022/01/19 03:48:07;;;;;;;;;;;;;;;;;;5018078;28;20606;-56
2022/01/19 03:50:32;;;;;;;;;;;;;;;;;;5018233;28;20436;-56
2022/01/19 03:52:58;;;;;;;;;;;;;;;;;;5017643;28;19918;-54
2022/01/19 03:55:23;;;;;;;;;;;;;;;;;;5017072;28;19925;-55
2022/01/19 03:57:49;;;;;;;;;;;;;;;;;;5017579;28;20053;-55
2022/01/19 04:00:15;;;;;;;;;;;;;;;;;;5019447;28;19933;-56
2022/01/19 04:02:40;;;;;;;;;;;;;;;;;;5017271;28;19947;-56
2022/01/19 04:05:14;;;;;;;;;;;;;;;;;;5017108;28;19925;-56
2022/01/19 04:07:40;;;;;;;;;;;;;;;;;;5018270;28;20362;-54
2022/01/19 04:10:05;;;;;;;;;;;;;;;;;;5018966;28;19978;-57
2022/01/19 04:12:43;;;;;;;;;;;;;;;;;;5017650;28;19925;-54
2022/01/19 04:15:09;;;;;;;;;;;;;;;;;;5017077;28;20301;-53
2022/01/19 04:17:36;;;;;;;;;;;;;;;;;;5016905;28;19929;-54
2022/01/19 04:20:02;;;;;;;;;;;;;;;;;;5003601;28;20439;-55
2022/01/19 04:22:27;;;;;;;;;;;;;;;;;;4996677;28;19933;-54
2022/01/19 04:24:53;;;;;;;;;;;;;;;;;;4997455;28;20409;-56
2022/01/19 04:29:46;;;;;;;;;;;;;;;;;;4997402;28;20386;-55
2022/01/19 04:32:16;;;;;;;;;;;;;;;;;;4998196;28;20364;-56
2022/01/19 04:34:43;;;;;;;;;;;;;;;;;;4995784;28;20007;-54
2022/01/19 04:48:21;;;;;;;;;;;;;;;;;;4998845;28;19925;-55
2022/01/19 05:04:12;;;;;;;;;;;;;;;;;;5044990;28;19925;-56
2022/01/19 05:06:42;;;;;;;;;;;;;;;;;;5045284;28;20383;-55
2022/01/19 05:14:32;;;;;;;;;;;;;;;;;;5049017;28;19966;-56
2022/01/19 05:16:57;;;;;;;;;;;;;;;;;;5049528;28;21685;-54
2022/01/19 05:19:23;;;;;;;;;;;;;;;;;;5047063;28;20006;-54
2022/01/19 05:21:48;;;;;;;;;;;;;;;;;;5028430;28;19921;-55
2022/01/19 05:24:13;;;;;;;;;;;;;;;;;;4999600;28;19929;-53
2022/01/19 05:26:39;;;;;;;;;;;;;;;;;;5000041;28;20548;-53
2022/01/19 05:29:04;;;;;;;;;;;;;;;;;;5001242;28;19971;-54
2022/01/19 05:31:30;;;;;;;;;;;;;;;;;;5000874;28;20763;-55
2022/01/19 05:33:55;;;;;;;;;;;;;;;;;;4999704;28;20448;-56
2022/01/19 05:36:21;;;;;;;;;;;;;;;;;;5001303;28;19941;-55
2022/01/19 05:38:46;;;;;;;;;;;;;;;;;;5001371;28;20219;-56
2022/01/19 05:41:11;;;;;;;;;;;;;;;;;;5000973;28;20004;-54
2022/01/19 05:43:37;;;;;;;;;;;;;;;;;;4999888;28;19929;-56
2022/01/19 05:46:02;;;;;;;;;;;;;;;;;;5002168;28;20400;-55
2022/01/19 05:48:28;;;;;;;;;;;;;;;;;;5001585;28;20310;-56
2022/01/19 05:50:53;;;;;;;;;;;;;;;;;;5003567;28;19921;-56
2022/01/19 05:53:19;;;;;;;;;;;;;;;;;;5003893;28;20372;-55
2022/01/19 05:55:44;;;;;;;;;;;;;;;;;;5006104;28;19925;-54
2022/01/19 05:58:10;;;;;;;;;;;;;;;;;;5007854;28;19936;-55
2022/01/19 06:00:35;;;;;;;;;;;;;;;;;;5002038;28;20028;-54
2022/01/19 06:03:01;;;;;;;;;;;;;;;;;;4999798;28;19933;-54
2022/01/19 06:05:26;;;;;;;;;;;;;;;;;;4998844;28;20008;-52
2022/01/19 06:08:08;;;;;;;;;;;;;;;;;;5000702;28;19932;-55
2022/01/19 06:10:43;;;;;;;;;;;;;;;;;;4997775;28;19925;-56
2022/01/19 06:13:08;;;;;;;;;;;;;;;;;;5000342;28;19968;-56
2022/01/19 06:15:34;;;;;;;;;;;;;;;;;;4998967;28;19929;-56
2022/01/19 06:17:59;;;;;;;;;;;;;;;;;;4999737;28;19937;-54
2022/01/19 06:20:25;;;;;;;;;;;;;;;;;;4999532;28;19952;-56
2022/01/19 06:22:50;;;;;;;;;;;;;;;;;;5000322;28;19976;-53
2022/01/19 06:25:16;;;;;;;;;;;;;;;;;;4998641;28;20007;-54
2022/01/19 06:27:41;;;;;;;;;;;;;;;;;;4999819;28;20362;-55
2022/01/19 06:30:07;;;;;;;;;;;;;;;;;;5000161;28;19921;-55
2022/01/19 06:32:32;;;;;;;;;;;;;;;;;;4999518;28;20670;-53
2022/01/19 06:34:58;;;;;;;;;;;;;;;;;;4998248;28;19964;-55
2022/01/19 06:37:23;;;;;;;;;;;;;;;;;;5000096;28;19941;-56
2022/01/19 06:39:49;;;;;;;;;;;;;;;;;;4999466;28;19932;-55
2022/01/19 06:42:14;;;;;;;;;;;;;;;;;;4999730;28;20037;-55
2022/01/19 06:44:39;;;;;;;;;;;;;;;;;;4999313;28;20606;-56
2022/01/19 06:47:05;;;;;;;;;;;;;;;;;;5000731;28;19971;-54
2022/01/19 06:49:30;;;;;;;;;;;;;;;;;;5001030;28;19925;-53
2022/01/19 06:51:56;;;;;;;;;;;;;;;;;;5000428;28;21758;-56
2022/01/19 06:54:21;;;;;;;;;;;;;;;;;;4999588;28;19928;-53
2022/01/19 06:56:47;;;;;;;;;;;;;;;;;;4995867;28;19929;-54
2022/01/19 06:59:12;;;;;;;;;;;;;;;;;;5008838;28;20028;-53
2022/01/19 07:01:38;;;;;;;;;;;;;;;;;;4999696;28;20979;-53
2022/01/19 07:04:03;;;;;;;;;;;;;;;;;;5001076;28;19925;-55
2022/01/19 07:06:28;;;;;;;;;;;;;;;;;;5001957;28;19921;-54
2022/01/19 07:08:54;;;;;;;;;;;;;;;;;;5004316;28;19925;-52
2022/01/19 07:11:19;;;;;;;;;;;;;;;;;;5014234;28;19921;-54
2022/01/19 07:13:45;;;;;;;;;;;;;;;;;;5012730;28;19918;-53
2022/01/19 07:16:10;;;;;;;;;;;;;;;;;;5003972;28;19921;-55
2022/01/19 07:18:36;;;;;;;;;;;;;;;;;;4999172;28;19921;-53
2022/01/19 07:21:01;;;;;;;;;;;;;;;;;;5000061;28;19932;-54
2022/01/19 07:23:27;;;;;;;;;;;;;;;;;;4997129;28;19935;-52
2022/01/19 07:25:52;;;;;;;;;;;;;;;;;;4999990;28;19944;-53
2022/01/19 07:28:18;;;;;;;;;;;;;;;;;;4998313;28;20016;-54
2022/01/19 07:30:43;;;;;;;;;;;;;;;;;;4999561;28;19947;-54
2022/01/19 07:33:09;;;;;;;;;;;;;;;;;;4998051;28;20668;-55
2022/01/19 07:35:34;;;;;;;;;;;;;;;;;;4997914;28;19934;-55
2022/01/19 07:37:59;;;;;;;;;;;;;;;;;;4998534;28;19937;-57
2022/01/19 07:40:25;;;;;;;;;;;;;;;;;;4992716;28;21711;-56
2022/01/19 07:42:51;;;;;;;;;;;;;;;;;;4999817;28;19922;-56
2022/01/19 07:45:17;;;;;;;;;;;;;;;;;;5000156;28;19922;-56
2022/01/19 07:47:42;;;;;;;;;;;;;;;;;;5015390;28;19928;-57
2022/01/19 07:50:07;;;;;;;;;;;;;;;;;;4996713;28;20321;-54
2022/01/19 07:52:33;;;;;;;;;;;;;;;;;;4997142;28;19957;-56
2022/01/19 07:54:58;;;;;;;;;;;;;;;;;;4998085;28;19921;-52
2022/01/19 07:57:24;;;;;;;;;;;;;;;;;;4997420;28;19933;-52
2022/01/19 07:59:49;;;;;;;;;;;;;;;;;;4998147;28;19922;-54
2022/01/19 08:02:16;;;;;;;;;;;;;;;;;;4999554;28;19987;-53
2022/01/19 08:04:41;;;;;;;;;;;;;;;;;;5013034;28;19940;-53
2022/01/19 08:07:07;;;;;;;;;;;;;;;;;;4997980;28;20717;-54
2022/01/19 08:09:33;;;;;;;;;;;;;;;;;;4997067;28;20000;-55
2022/01/19 08:11:59;;;;;;;;;;;;;;;;;;4998351;28;20030;-55
2022/01/19 08:14:24;;;;;;;;;;;;;;;;;;4996952;28;20670;-54
2022/01/19 08:16:50;;;;;;;;;;;;;;;;;;4997757;28;19929;-56
2022/01/19 08:19:15;;;;;;;;;;;;;;;;;;4997989;28;19930;-56
2022/01/19 08:21:40;;;;;;;;;;;;;;;;;;4998589;28;19922;-56
2022/01/19 08:24:06;;;;;;;;;;;;;;;;;;4999767;28;19933;-56
2022/01/19 08:26:31;;;;;;;;;;;;;;;;;;5019729;28;19925;-55
2022/01/19 08:28:57;;;;;;;;;;;;;;;;;;5012028;28;19975;-54
2022/01/19 08:31:23;;;;;;;;;;;;;;;;;;5017958;28;19921;-56
2022/01/19 08:33:48;;;;;;;;;;;;;;;;;;5017829;28;19972;-55
2022/01/19 08:36:14;;;;;;;;;;;;;;;;;;5019797;28;19936;-53
2022/01/19 08:38:41;;;;;;;;;;;;;;;;;;5016881;28;19921;-53
2022/01/19 08:41:07;;;;;;;;;;;;;;;;;;5018581;28;19957;-56
2022/01/19 08:43:32;;;;;;;;;;;;;;;;;;5016593;28;20012;-54
2022/01/19 08:45:58;;;;;;;;;;;;;;;;;;5019068;28;19975;-53
2022/01/19 08:48:23;;;;;;;;;;;;;;;;;;5020573;28;19929;-55
2022/01/19 08:50:48;;;;;;;;;;;;;;;;;;5022660;28;19967;-53
2022/01/19 08:53:14;;;;;;;;;;;;;;;;;;5020962;28;20384;-53
2022/01/19 08:55:39;;;;;;;;;;;;;;;;;;5021324;28;20683;-53
2022/01/19 08:58:05;;;;;;;;;;;;;;;;;;5021214;28;19952;-53
2022/01/19 09:00:31;;;;;;;;;;;;;;;;;;5022051;28;19932;-54
2022/01/19 09:02:56;;;;;;;;;;;;;;;;;;5023779;28;20448;-54
2022/01/19 09:05:21;;;;;;;;;;;;;;;;;;5021554;28;19925;-53
2022/01/19 09:07:47;;;;;;;;;;;;;;;;;;5023077;28;19921;-54
2022/01/19 09:10:13;;;;;;;;;;;;;;;;;;5022500;28;19936;-54
2022/01/19 09:12:38;;;;;;;;;;;;;;;;;;5021503;28;19975;-53
2022/01/19 09:15:04;;;;;;;;;;;;;;;;;;5028683;28;19925;-56
2022/01/19 09:17:29;;;;;;;;;;;;;;;;;;5019811;28;19929;-56
2022/01/19 09:19:55;;;;;;;;;;;;;;;;;;5020786;28;19932;-55
2022/01/19 09:22:20;;;;;;;;;;;;;;;;;;5013673;28;20403;-56
2022/01/19 09:24:46;;;;;;;;;;;;;;;;;;5021745;28;19929;-55
2022/01/19 09:27:13;;;;;;;;;;;;;;;;;;5021773;28;19933;-54
2022/01/19 09:29:42;;;;;;;;;;;;;;;;;;5021272;28;19936;-55
2022/01/19 09:32:08;;;;;;;;;;;;;;;;;;5022179;28;19975;-53
2022/01/19 09:34:33;;;;;;;;;;;;;;;;;;5021400;28;19925;-51
2022/01/19 09:36:59;;;;;;;;;;;;;;;;;;5023363;28;20301;-55
2022/01/19 09:39:25;;;;;;;;;;;;;;;;;;5022858;28;19921;-55
2022/01/19 09:41:50;;;;;;;;;;;;;;;;;;5023333;28;20015;-54
2022/01/19 09:44:16;;;;;;;;;;;;;;;;;;5024336;28;19952;-53
2022/01/19 09:46:41;;;;;;;;;;;;;;;;;;5021965;28;19987;-53
2022/01/19 09:49:06;;;;;;;;;;;;;;;;;;5024312;28;19964;-54
2022/01/19 09:51:32;;;;;;;;;;;;;;;;;;5023741;28;19917;-55
2022/01/19 09:53:57;;;;;;;;;;;;;;;;;;5024256;28;19921;-56
2022/01/19 09:56:23;;;;;;;;;;;;;;;;;;5023318;28;20585;-55
2022/01/19 09:58:48;;;;;;;;;;;;;;;;;;5021661;28;20385;-54
2022/01/19 10:01:14;;;;;;;;;;;;;;;;;;5025201;28;19928;-55
2022/01/19 10:03:39;;;;;;;;;;;;;;;;;;5021846;28;19925;-56
2022/01/19 10:06:06;;;;;;;;;;;;;;;;;;5020529;28;19925;-52
2022/01/19 10:08:31;;;;;;;;;;;;;;;;;;5022086;28;19925;-55
2022/01/19 10:10:57;;;;;;;;;;;;;;;;;;5021275;28;20650;-53
2022/01/19 10:18:50;;;;;;;;;;;;;;;;;;5020889;28;19941;-52
2022/01/19 10:21:16;;;;;;;;;;;;;;;;;;5023603;28;20736;-53
2022/01/19 10:23:42;;;;;;;;;;;;;;;;;;5022622;28;20087;-54
2022/01/19 10:26:08;;;;;;;;;;;;;;;;;;5030784;28;19972;-55
2022/01/19 10:28:33;;;;;;;;;;;;;;;;;;5031229;28;19921;-56
2022/01/19 10:30:59;;;;;;;;;;;;;;;;;;5023726;28;19929;-56
2022/01/19 10:33:24;;;;;;;;;;;;;;;;;;5019268;28;19928;-56
2022/01/19 10:35:49;;;;;;;;;;;;;;;;;;5019220;28;20921;-53
2022/01/19 10:38:16;;;;;;;;;;;;;;;;;;5020091;28;20477;-53
2022/01/19 10:40:41;;;;;;;;;;;;;;;;;;5020269;28;20008;-53
2022/01/19 10:43:07;;;;;;;;;;;;;;;;;;5019516;28;19927;-53
2022/01/19 10:45:32;;;;;;;;;;;;;;;;;;5019371;28;19959;-55
2022/01/19 10:47:57;;;;;;;;;;;;;;;;;;5021024;28;19924;-54
2022/01/19 10:50:23;;;;;;;;;;;;;;;;;;5021867;28;19925;-53
2022/01/19 10:52:48;;;;;;;;;;;;;;;;;;5020780;28;19921;-54
2022/01/19 10:55:14;;;;;;;;;;;;;;;;;;5019941;28;19925;-56
2022/01/19 10:57:39;;;;;;;;;;;;;;;;;;5020430;28;20374;-53
2022/01/19 11:00:05;;;;;;;;;;;;;;;;;;5020628;28;19921;-55
2022/01/19 11:02:30;;;;;;;;;;;;;;;;;;5021044;28;20419;-53
2022/01/19 11:04:56;;;;;;;;;;;;;;;;;;5020291;28;19921;-52
2022/01/19 11:07:22;;;;;;;;;;;;;;;;;;5020693;28;19971;-54
2022/01/19 11:09:59;;;;;;;;;;;;;;;;;;5019615;28;19921;-55
2022/01/19 11:12:28;;;;;;;;;;;;;;;;;;5019699;28;19991;-55
2022/01/19 11:14:54;;;;;;;;;;;;;;;;;;5019704;28;20437;-54
2022/01/19 11:17:19;;;;;;;;;;;;;;;;;;5018369;28;19998;-56
2022/01/19 11:19:45;;;;;;;;;;;;;;;;;;5020153;28;20955;-55
2022/01/19 11:22:10;;;;;;;;;;;;;;;;;;5020049;28;20470;-55
2022/01/19 11:24:36;;;;;;;;;;;;;;;;;;5019535;28;20016;-53
2022/01/19 11:27:01;;;;;;;;;;;;;;;;;;5019341;28;19932;-55
2022/01/19 11:29:26;;;;;;;;;;;;;;;;;;5018256;28;20011;-54
2022/01/19 11:31:52;;;;;;;;;;;;;;;;;;5020393;28;20008;-53
2022/01/19 11:34:17;;;;;;;;;;;;;;;;;;5018679;28;19917;-55
2022/01/19 11:36:43;;;;;;;;;;;;;;;;;;5021412;28;19933;-54
2022/01/19 11:39:08;;;;;;;;;;;;;;;;;;5021099;28;19921;-52
2022/01/19 11:41:34;;;;;;;;;;;;;;;;;;5019063;28;19943;-56
2022/01/19 11:43:59;;;;;;;;;;;;;;;;;;5020107;28;19952;-53
2022/01/19 11:46:25;;;;;;;;;;;;;;;;;;5021146;28;19955;-53
2022/01/19 11:48:50;;;;;;;;;;;;;;;;;;5021191;28;19936;-54
2022/01/19 11:51:16;;;;;;;;;;;;;;;;;;5019762;28;19925;-56
2022/01/19 11:53:41;;;;;;;;;;;;;;;;;;5020230;28;19925;-53
2022/01/19 11:56:08;;;;;;;;;;;;;;;;;;5021712;28;19978;-55
2022/01/19 11:58:34;;;;;;;;;;;;;;;;;;5020150;28;19928;-53
2022/01/19 12:00:59;;;;;;;;;;;;;;;;;;5028897;28;20012;-54
2022/01/19 12:03:25;;;;;;;;;;;;;;;;;;5011612;28;19921;-55
2022/01/19 12:05:51;;;;;;;;;;;;;;;;;;5020841;28;19928;-56
2022/01/19 12:08:16;;;;;;;;;;;;;;;;;;5020482;28;19921;-56
2022/01/19 12:10:44;;;;;;;;;;;;;;;;;;5021061;28;19925;-52
2022/01/19 12:13:10;;;;;;;;;;;;;;;;;;5019666;28;19929;-53
2022/01/19 12:15:35;;;;;;;;;;;;;;;;;;5019790;28;19928;-53
2022/01/19 12:18:09;;;;;;;;;;;;;;;;;;5028575;28;19933;-53
2022/01/19 12:20:34;;;;;;;;;;;;;;;;;;5019494;28;19971;-53
2022/01/19 12:23:00;;;;;;;;;;;;;;;;;;5020140;28;20153;-52
2022/01/19 12:25:25;;;;;;;;;;;;;;;;;;5024097;28;19921;-55
2022/01/19 12:27:51;;;;;;;;;;;;;;;;;;5025927;28;19964;-56
2022/01/19 12:30:16;;;;;;;;;;;;;;;;;;5024149;28;19974;-55
2022/01/19 12:32:42;;;;;;;;;;;;;;;;;;5023024;28;19956;-55
2022/01/19 12:35:08;;;;;;;;;;;;;;;;;;5022811;28;19932;-55
2022/01/19 12:37:34;;;;;;;;;;;;;;;;;;5022769;28;20912;-54
2022/01/19 12:40:00;;;;;;;;;;;;;;;;;;5023760;28;20008;-55
2022/01/19 12:42:31;;;;;;;;;;;;;;;;;;5023956;28;19921;-53
2022/01/19 12:44:57;;;;;;;;;;;;;;;;;;5024523;28;20955;-52
2022/01/19 12:47:22;;;;;;;;;;;;;;;;;;5025712;28;19921;-54
2022/01/19 12:49:47;;;;;;;;;;;;;;;;;;5023475;28;19974;-55
2022/01/19 12:52:13;;;;;;;;;;;;;;;;;;5021662;28;20003;-54
2022/01/19 12:54:38;;;;;;;;;;;;;;;;;;5020073;28;19932;-54
2022/01/19 12:57:04;;;;;;;;;;;;;;;;;;5020830;28;19979;-54
2022/01/19 12:59:29;;;;;;;;;;;;;;;;;;5020644;28;20735;-56
2022/01/19 13:01:55;;;;;;;;;;;;;;;;;;5022401;28;19921;-53
2022/01/19 13:04:20;;;;;;;;;;;;;;;;;;5021898;28;19956;-54
2022/01/19 13:06:45;;;;;;;;;;;;;;;;;;5024408;28;20293;-55
2022/01/19 13:09:23;;;;;;;;;;;;;;;;;;5023340;28;19996;-54
2022/01/19 13:11:52;;;;;;;;;;;;;;;;;;5023542;28;19925;-55
2022/01/19 13:14:17;;;;;;;;;;;;;;;;;;5019056;28;19987;-55
2022/01/19 13:16:44;;;;;;;;;;;;;;;;;;5022146;28;19964;-56
2022/01/19 13:19:10;;;;;;;;;;;;;;;;;;5021518;28;19921;-54
2022/01/19 13:21:36;;;;;;;;;;;;;;;;;;5020875;28;19980;-54
2022/01/19 13:24:02;;;;;;;;;;;;;;;;;;5020311;28;19933;-55
2022/01/19 13:26:28;;;;;;;;;;;;;;;;;;5019342;28;19925;-54
2022/01/19 13:28:53;;;;;;;;;;;;;;;;;;5023933;28;19940;-55
2022/01/19 13:31:19;;;;;;;;;;;;;;;;;;5023711;28;19925;-53
2022/01/19 13:33:44;;;;;;;;;;;;;;;;;;5024446;28;19918;-52
2022/01/19 13:36:10;;;;;;;;;;;;;;;;;;5027247;28;20673;-53
2022/01/19 13:38:37;;;;;;;;;;;;;;;;;;5027717;28;19933;-56
2022/01/19 13:41:02;;;;;;;;;;;;;;;;;;5031264;28;19948;-54
2022/01/19 13:43:28;;;;;;;;;;;;;;;;;;5035721;28;20787;-56
2022/01/19 13:46:01;;;;;;;;;;;;;;;;;;5035518;28;19925;-55
2022/01/19 13:50:53;;;;;;;;;;;;;;;;;;5026021;28;21307;-56
2022/01/19 13:53:18;;;;;;;;;;;;;;;;;;5024329;28;19921;-53
2022/01/19 13:55:44;;;;;;;;;;;;;;;;;;5020166;28;19947;-55
2022/01/19 13:58:09;;;;;;;;;;;;;;;;;;5021985;28;19935;-55
2022/01/19 14:00:35;;;;;;;;;;;;;;;;;;5021403;28;19945;-55
2022/01/19 14:03:03;;;;;;;;;;;;;;;;;;5020504;28;19928;-53
2022/01/19 14:05:28;;;;;;;;;;;;;;;;;;5020170;28;19921;-55
2022/01/19 14:07:54;;;;;;;;;;;;;;;;;;5021892;28;19925;-56
2022/01/19 14:10:19;;;;;;;;;;;;;;;;;;5019616;28;19921;-51
2022/01/19 14:12:44;;;;;;;;;;;;;;;;;;5020515;28;19921;-53
2022/01/19 14:15:12;;;;;;;;;;;;;;;;;;5020763;28;20012;-52
2022/01/19 14:17:40;;;;;;;;;;;;;;;;;;5018815;28;20068;-52
2022/01/19 14:20:05;;;;;;;;;;;;;;;;;;5020545;28;20028;-54
2022/01/19 14:22:32;;;;;;;;;;;;;;;;;;5019667;28;20029;-55
2022/01/19 14:24:57;;;;;;;;;;;;;;;;;;5016340;28;19928;-54
2022/01/19 14:27:23;;;;;;;;;;;;;;;;;;5022016;28;19996;-52
2022/01/19 14:29:48;;;;;;;;;;;;;;;;;;5023688;28;19982;-53
2022/01/19 14:32:14;;;;;;;;;;;;;;;;;;5023371;28;19952;-55
2022/01/19 14:34:39;;;;;;;;;;;;;;;;;;5021899;28;19921;-51
2022/01/19 14:37:05;;;;;;;;;;;;;;;;;;5022107;28;19943;-55
2022/01/19 14:39:30;;;;;;;;;;;;;;;;;;5021528;28;19917;-52
2022/01/19 14:41:57;;;;;;;;;;;;;;;;;;5020422;28;20017;-53
2022/01/19 14:44:29;;;;;;;;;;;;;;;;;;5019315;28;19929;-52
2022/01/19 14:47:05;;;;;;;;;;;;;;;;;;5020986;28;20079;-54
2022/01/19 14:49:31;;;;;;;;;;;;;;;;;;5019534;28;19917;-55
2022/01/19 14:51:57;;;;;;;;;;;;;;;;;;5020908;28;19921;-54
2022/01/19 14:54:23;;;;;;;;;;;;;;;;;;5018688;28;19921;-55
2022/01/19 14:56:48;;;;;;;;;;;;;;;;;;5019764;28;19940;-55
2022/01/19 14:59:14;;;;;;;;;;;;;;;;;;5019438;28;19992;-55
2022/01/19 15:01:39;;;;;;;;;;;;;;;;;;5017777;28;19925;-52
2022/01/19 15:04:05;;;;;;;;;;;;;;;;;;5017806;28;20488;-52
2022/01/19 15:06:30;;;;;;;;;;;;;;;;;;5019250;28;20367;-52
2022/01/19 15:08:56;;;;;;;;;;;;;;;;;;5020153;28;19917;-55
2022/01/19 15:11:21;;;;;;;;;;;;;;;;;;5025818;28;19956;-52
2022/01/19 15:13:47;;;;;;;;;;;;;;;;;;5017663;28;19922;-52
2022/01/19 15:16:12;;;;;;;;;;;;;;;;;;5018991;28;19986;-53
2022/01/19 15:18:37;;;;;;;;;;;;;;;;;;5018325;28;19929;-52
2022/01/19 15:21:03;;;;;;;;;;;;;;;;;;5019521;28;20036;-53
2022/01/19 15:23:28;;;;;;;;;;;;;;;;;;5018861;28;19929;-52
2022/01/19 15:25:57;;;;;;;;;;;;;;;;;;5019921;28;19918;-54
2022/01/19 15:28:23;;;;;;;;;;;;;;;;;;5018969;28;20419;-52
2022/01/19 15:30:49;;;;;;;;;;;;;;;;;;5018830;28;19921;-52
2022/01/19 15:33:14;;;;;;;;;;;;;;;;;;5019398;28;19921;-54
2022/01/19 15:35:40;;;;;;;;;;;;;;;;;;5018170;28;19925;-55
2022/01/19 15:38:05;;;;;;;;;;;;;;;;;;5017449;28;19932;-53
2022/01/19 15:40:31;;;;;;;;;;;;;;;;;;5017676;28;19920;-55
2022/01/19 15:42:57;;;;;;;;;;;;;;;;;;5020436;28;19975;-54
2022/01/19 15:45:22;;;;;;;;;;;;;;;;;;5020323;28;19929;-53
2022/01/19 15:47:48;;;;;;;;;;;;;;;;;;5022020;28;19922;-54
2022/01/19 15:50:13;;;;;;;;;;;;;;;;;;5019981;28;20535;-55
2022/01/19 15:52:39;;;;;;;;;;;;;;;;;;5017157;28;19925;-53
2022/01/19 15:55:04;;;;;;;;;;;;;;;;;;5017200;28;19987;-53
2022/01/19 15:57:29;;;;;;;;;;;;;;;;;;5015726;28;19933;-55
2022/01/19 15:59:56;;;;;;;;;;;;;;;;;;5027250;28;20324;-53
2022/01/19 16:02:21;;;;;;;;;;;;;;;;;;5018217;28;19925;-52
2022/01/19 16:04:47;;;;;;;;;;;;;;;;;;5018890;28;19921;-55
2022/01/19 16:07:12;;;;;;;;;;;;;;;;;;5018117;28;19975;-54
2022/01/19 16:09:37;;;;;;;;;;;;;;;;;;5017308;28;19976;-54
2022/01/19 16:12:03;;;;;;;;;;;;;;;;;;5025348;28;19944;-53
2022/01/19 16:14:28;;;;;;;;;;;;;;;;;;5017940;28;20567;-56
2022/01/19 16:16:54;;;;;;;;;;;;;;;;;;5017294;28;19936;-54
2022/01/19 16:19:19;;;;;;;;;;;;;;;;;;5018919;28;19923;-55
2022/01/19 16:21:45;;;;;;;;;;;;;;;;;;5018446;28;19917;-54
2022/01/19 16:26:54;;;;;;;;;;;;;;;;;;5018947;28;19927;-53
2022/01/19 16:29:20;;;;;;;;;;;;;;;;;;5018535;28;20434;-54
2022/01/19 16:31:46;;;;;;;;;;;;;;;;;;5020193;28;20333;-56
2022/01/19 16:34:12;;;;;;;;;;;;;;;;;;5019229;28;19975;-54
2022/01/19 16:36:37;;;;;;;;;;;;;;;;;;5027409;28;19929;-56
2022/01/19 16:39:03;;;;;;;;;;;;;;;;;;5020936;28;19933;-55
2022/01/19 16:41:30;;;;;;;;;;;;;;;;;;5017277;28;20141;-53
2022/01/19 16:43:55;;;;;;;;;;;;;;;;;;5017113;28;20033;-53
2022/01/19 16:46:21;;;;;;;;;;;;;;;;;;5018153;28;19956;-56
2022/01/19 16:48:46;;;;;;;;;;;;;;;;;;5018964;28;19921;-54
2022/01/19 16:51:12;;;;;;;;;;;;;;;;;;5018761;28;19925;-54
2022/01/19 16:53:39;;;;;;;;;;;;;;;;;;5017973;28;19974;-53
2022/01/19 16:56:04;;;;;;;;;;;;;;;;;;5021659;28;19921;-57
2022/01/19 16:58:30;;;;;;;;;;;;;;;;;;5024927;28;19940;-54
2022/01/19 17:00:57;;;;;;;;;;;;;;;;;;5023004;28;19966;-55
2022/01/19 17:03:22;;;;;;;;;;;;;;;;;;5017378;28;20259;-55
2022/01/19 17:05:50;;;;;;;;;;;;;;;;;;5018611;28;19936;-54
2022/01/19 17:08:16;;;;;;;;;;;;;;;;;;5020075;28;19975;-52
2022/01/19 17:10:47;;;;;;;;;;;;;;;;;;5020769;28;20477;-55
2022/01/19 17:13:27;;;;;;;;;;;;;;;;;;5022375;28;19925;-56
2022/01/19 17:15:55;;;;;;;;;;;;;;;;;;5022045;28;20441;-55
2022/01/19 17:18:20;;;;;;;;;;;;;;;;;;5023084;28;19932;-56
2022/01/19 17:20:46;;;;;;;;;;;;;;;;;;5031242;28;19925;-53
2022/01/19 17:23:11;;;;;;;;;;;;;;;;;;5033709;28;20033;-55
2022/01/19 17:25:37;;;;;;;;;;;;;;;;;;5034699;28;19932;-56
2022/01/19 17:28:02;;;;;;;;;;;;;;;;;;5025534;28;20374;-56
2022/01/19 17:30:28;;;;;;;;;;;;;;;;;;5023512;28;19932;-56
2022/01/19 17:32:53;;;;;;;;;;;;;;;;;;5022892;28;20357;-54
2022/01/19 17:35:18;;;;;;;;;;;;;;;;;;5021872;28;20070;-55
2022/01/19 17:37:44;;;;;;;;;;;;;;;;;;5020489;28;19976;-55
2022/01/19 17:40:09;;;;;;;;;;;;;;;;;;5021462;28;20423;-55
2022/01/19 17:42:35;;;;;;;;;;;;;;;;;;5021400;28;20444;-56
2022/01/19 17:45:03;;;;;;;;;;;;;;;;;;5022235;28;20378;-55
2022/01/19 17:50:06;;;;;;;;;;;;;;;;;;5021947;28;19925;-52
2022/01/19 17:52:31;;;;;;;;;;;;;;;;;;5019901;28;20366;-53
2022/01/19 17:54:57;;;;;;;;;;;;;;;;;;5021689;28;19925;-53
2022/01/19 17:57:23;;;;;;;;;;;;;;;;;;5020659;28;19929;-55
2022/01/19 17:59:53;;;;;;;;;;;;;;;;;;5021135;28;19925;-53
2022/01/19 18:02:18;;;;;;;;;;;;;;;;;;5020458;28;19932;-55
2022/01/19 18:04:45;;;;;;;;;;;;;;;;;;5021325;28;19917;-53
2022/01/19 18:07:10;;;;;;;;;;;;;;;;;;5021394;28;20397;-53